Etusivu
METAR-TAF:

METAR-TAF

Lentoasemat :

Jällivaaran lentoasema

Jällivaara, Ruotsi

Leveyspiiri: 67-09N, Pituuspiiri: 020-39E, korkeus merenpinnasta: 359 m

Tämänhetkinen sää

Tämä raportti tehtiin 34 minuuttia sitten, kello 09.20 UTC
Tuuli 1 kn lännestä/luoteesta
Lämpötila -8°C
Kosteus 92%
Ilmanpaine 1019 hPa
Näkyvyys: 5000 m
heikkoa lumisadetta

METAR: ESNG 170920Z AUTO 29001KT 5000 -SN BKN007/// OVC009/// M08/M09 Q1019

Aika: 10:54 (09:54 UTC)


TAF: puuttuu

Säähavainnot ja -ennusteet yli 4000 lentoasemalta (METAR- ja TAF-raportit).

Käytössä olevat sääasemat on merkitty karttaan keltaisilla ja punaisilla pisteillä.

Aseta hiiri pisteen päälle nähdäksesi sääaseman nimen.

Klikkaa sitten nähdäksesi säähavainnot ja -ennusteet.

Kartan vaihtaminen: klikkaa mustalla rastilla varustettuja vihreitä pisteitä, niin voit zoomata sisään; viivalla varustettua vihreää pistettä, niin voit zoomata ulos tai vihreitä nuolia, niin pääset viereisille kartoille.


METAR-TAF: